sensor_id;sensor_type;location;lat;lon;timestamp;pressure;altitude;pressure_sealevel;temperature;humidity
9525;BME280;15940;48.734;9.112;2023-02-12T00:01:48;98474.69;;;3.95;78.55
9525;BME280;15940;48.734;9.112;2023-02-12T00:04:15;98475.50;;;3.92;78.40
9525;BME280;15940;48.734;9.112;2023-02-12T00:06:42;98478.94;;;3.92;78.63
9525;BME280;15940;48.734;9.112;2023-02-12T00:12:54;98476.63;;;3.94;78.36
9525;BME280;15940;48.734;9.112;2023-02-12T00:15:22;98469.72;;;3.93;78.04
9525;BME280;15940;48.734;9.112;2023-02-12T00:17:51;98470.13;;;3.92;78.20
9525;BME280;15940;48.734;9.112;2023-02-12T00:20:18;98486.22;;;3.92;78.37
9525;BME280;15940;48.734;9.112;2023-02-12T00:22:48;98488.13;;;3.91;78.24
9525;BME280;15940;48.734;9.112;2023-02-12T00:25:18;98473.97;;;3.91;77.76
9525;BME280;15940;48.734;9.112;2023-02-12T00:27:45;98480.84;;;3.92;78.08
9525;BME280;15940;48.734;9.112;2023-02-12T00:30:14;98481.22;;;3.94;78.10
9525;BME280;15940;48.734;9.112;2023-02-12T00:32:44;98486.56;;;3.94;78.63
9525;BME280;15940;48.734;9.112;2023-02-12T00:35:11;98479.69;;;3.93;78.53
9525;BME280;15940;48.734;9.112;2023-02-12T00:37:39;98485.41;;;3.95;78.45
9525;BME280;15940;48.734;9.112;2023-02-12T00:40:07;98488.84;;;3.95;78.04
9525;BME280;15940;48.734;9.112;2023-02-12T00:42:34;98491.94;;;3.94;78.27
9525;BME280;15940;48.734;9.112;2023-02-12T00:45:02;98488.09;;;3.95;78.24
9525;BME280;15940;48.734;9.112;2023-02-12T00:47:29;98494.97;;;3.96;78.28
9525;BME280;15940;48.734;9.112;2023-02-12T00:49:57;98491.13;;;3.97;78.32
9525;BME280;15940;48.734;9.112;2023-02-12T00:52:24;98500.75;;;3.94;78.96
9525;BME280;15940;48.734;9.112;2023-02-12T00:54:51;98499.97;;;3.94;79.04
9525;BME280;15940;48.734;9.112;2023-02-12T00:57:18;98503.41;;;3.94;78.75
9525;BME280;15940;48.734;9.112;2023-02-12T00:59:45;98505.72;;;3.96;78.74
9525;BME280;15940;48.734;9.112;2023-02-12T01:02:15;98501.91;;;3.93;79.01
9525;BME280;15940;48.734;9.112;2023-02-12T01:04:45;98501.91;;;3.93;78.77
9525;BME280;15940;48.734;9.112;2023-02-12T01:07:13;98503.41;;;3.94;79.05
9525;BME280;15940;48.734;9.112;2023-02-12T01:09:43;98500.38;;;3.92;78.89
9525;BME280;15940;48.734;9.112;2023-02-12T01:12:10;98496.16;;;3.95;78.96
9525;BME280;15940;48.734;9.112;2023-02-12T01:14:37;98499.59;;;3.95;78.85
9525;BME280;15940;48.734;9.112;2023-02-12T01:17:08;98489.66;;;3.92;78.95
9525;BME280;15940;48.734;9.112;2023-02-12T01:19:37;98495.38;;;3.94;79.01
9525;BME280;15940;48.734;9.112;2023-02-12T01:22:04;98506.50;;;3.93;79.40
9525;BME280;15940;48.734;9.112;2023-02-12T01:24:32;98499.97;;;3.94;79.14
9525;BME280;15940;48.734;9.112;2023-02-12T01:26:59;98503.06;;;3.92;79.07
9525;BME280;15940;48.734;9.112;2023-02-12T01:29:26;98499.63;;;3.92;79.30
9525;BME280;15940;48.734;9.112;2023-02-12T01:31:53;98495.03;;;3.92;79.04
9525;BME280;15940;48.734;9.112;2023-02-12T01:34:22;98496.53;;;3.93;79.31
9525;BME280;15940;48.734;9.112;2023-02-12T01:36:49;98495.03;;;3.92;79.26
9525;BME280;15940;48.734;9.112;2023-02-12T01:39:16;98502.66;;;3.94;79.48
9525;BME280;15940;48.734;9.112;2023-02-12T01:41:44;98492.34;;;3.92;79.43
9525;BME280;15940;48.734;9.112;2023-02-12T01:44:16;98491.94;;;3.94;79.36
9525;BME280;15940;48.734;9.112;2023-02-12T01:46:49;98500.78;;;3.91;79.19
9525;BME280;15940;48.734;9.112;2023-02-12T01:49:23;98493.50;;;3.91;79.29
9525;BME280;15940;48.734;9.112;2023-02-12T01:51:57;98493.09;;;3.93;79.36
9525;BME280;15940;48.734;9.112;2023-02-12T01:54:26;98498.47;;;3.93;79.07
9525;BME280;15940;48.734;9.112;2023-02-12T02:00:48;98485.84;;;3.86;78.91
9525;BME280;15940;48.734;9.112;2023-02-12T02:03:16;98488.53;;;3.86;78.96
9525;BME280;15940;48.734;9.112;2023-02-12T02:05:52;98484.34;;;3.85;78.90
9525;BME280;15940;48.734;9.112;2023-02-12T02:08:22;98488.22;;;3.81;79.18
9525;BME280;15940;48.734;9.112;2023-02-12T02:10:49;98481.69;;;3.82;79.26
9525;BME280;15940;48.734;9.112;2023-02-12T02:13:16;98483.63;;;3.78;79.39
9525;BME280;15940;48.734;9.112;2023-02-12T02:16:11;98485.53;;;3.77;80.03
9525;BME280;15940;48.734;9.112;2023-02-12T02:18:46;98482.09;;;3.80;79.95
9525;BME280;15940;48.734;9.112;2023-02-12T02:21:44;98473.66;;;3.78;80.03
9525;BME280;15940;48.734;9.112;2023-02-12T02:25:07;98465.63;;;3.78;79.62
9525;BME280;15940;48.734;9.112;2023-02-12T02:27:50;98472.13;;;3.81;79.92
9525;BME280;15940;48.734;9.112;2023-02-12T02:30:35;98468.28;;;3.78;79.73
9525;BME280;15940;48.734;9.112;2023-02-12T02:33:36;98460.28;;;3.75;79.90
9525;BME280;15940;48.734;9.112;2023-02-12T02:36:19;98465.66;;;3.75;80.25
9525;BME280;15940;48.734;9.112;2023-02-12T02:38:53;98470.22;;;3.78;80.45
9525;BME280;15940;48.734;9.112;2023-02-12T02:41:32;98459.91;;;3.76;80.36
9525;BME280;15940;48.734;9.112;2023-02-12T02:44:36;98458.34;;;3.79;80.43
9525;BME280;15940;48.734;9.112;2023-02-12T02:57:40;98457.56;;;3.82;80.58
9525;BME280;15940;48.734;9.112;2023-02-12T03:00:16;98456.41;;;3.83;80.87
9525;BME280;15940;48.734;9.112;2023-02-12T03:02:49;98457.94;;;3.84;80.55
9525;BME280;15940;48.734;9.112;2023-02-12T03:05:23;98451.41;;;3.85;80.84
9525;BME280;15940;48.734;9.112;2023-02-12T03:07:56;98455.25;;;3.84;80.81
9525;BME280;15940;48.734;9.112;2023-02-12T03:10:29;98443.75;;;3.83;80.68
9525;BME280;15940;48.734;9.112;2023-02-12T03:13:04;98451.41;;;3.85;80.92
9525;BME280;15940;48.734;9.112;2023-02-12T03:15:36;98455.22;;;3.87;80.88
9525;BME280;15940;48.734;9.112;2023-02-12T03:18:09;98465.56;;;3.85;80.54
9525;BME280;15940;48.734;9.112;2023-02-12T03:20:43;98459.44;;;3.85;80.76
9525;BME280;15940;48.734;9.112;2023-02-12T03:23:17;98450.25;;;3.86;80.64
9525;BME280;15940;48.734;9.112;2023-02-12T03:25:51;98461.38;;;3.84;80.76
9525;BME280;15940;48.734;9.112;2023-02-12T03:28:33;98461.78;;;3.83;80.59
9525;BME280;15940;48.734;9.112;2023-02-12T03:31:07;98478.63;;;3.83;80.70
9525;BME280;15940;48.734;9.112;2023-02-12T03:33:53;98473.25;;;3.83;80.88
9525;BME280;15940;48.734;9.112;2023-02-12T03:36:36;98468.66;;;3.84;80.85
9525;BME280;15940;48.734;9.112;2023-02-12T03:39:10;98466.72;;;3.84;81.00
9525;BME280;15940;48.734;9.112;2023-02-12T03:41:47;98467.13;;;3.83;81.01
9525;BME280;15940;48.734;9.112;2023-02-12T03:44:42;98466.38;;;3.82;81.19
9525;BME280;15940;48.734;9.112;2023-02-12T03:47:21;98471.34;;;3.84;81.33
9525;BME280;15940;48.734;9.112;2023-02-12T03:50:06;98461.78;;;3.83;81.11
9525;BME280;15940;48.734;9.112;2023-02-12T03:52:36;98465.22;;;3.83;81.21
9525;BME280;15940;48.734;9.112;2023-02-12T03:55:05;98469.47;;;3.77;81.08
9525;BME280;15940;48.734;9.112;2023-02-12T03:57:38;98462.19;;;3.78;81.16
9525;BME280;15940;48.734;9.112;2023-02-12T04:00:13;98461.06;;;3.75;81.19
9525;BME280;15940;48.734;9.112;2023-02-12T04:02:41;98475.22;;;3.79;81.37
9525;BME280;15940;48.734;9.112;2023-02-12T04:05:19;98484.78;;;3.80;81.18
9525;BME280;15940;48.734;9.112;2023-02-12T04:07:47;98475.97;;;3.80;81.05
9525;BME280;15940;48.734;9.112;2023-02-12T04:10:16;98477.88;;;3.79;80.91
9525;BME280;15940;48.734;9.112;2023-02-12T04:12:51;98484.78;;;3.77;81.09
9525;BME280;15940;48.734;9.112;2023-02-12T04:16:01;98482.50;;;3.75;80.73
9525;BME280;15940;48.734;9.112;2023-02-12T04:18:38;98480.25;;;3.70;80.73
9525;BME280;15940;48.734;9.112;2023-02-12T04:21:18;98485.59;;;3.70;80.87
9525;BME280;15940;48.734;9.112;2023-02-12T04:23:55;98485.56;;;3.73;81.09
9525;BME280;15940;48.734;9.112;2023-02-12T04:26:35;98486.69;;;3.76;81.06
9525;BME280;15940;48.734;9.112;2023-02-12T04:29:15;98483.69;;;3.70;80.79
9525;BME280;15940;48.734;9.112;2023-02-12T04:31:50;98491.34;;;3.68;80.93
9525;BME280;15940;48.734;9.112;2023-02-12T04:34:30;98496.72;;;3.65;81.32
9525;BME280;15940;48.734;9.112;2023-02-12T04:37:06;98492.88;;;3.66;81.09
9525;BME280;15940;48.734;9.112;2023-02-12T04:39:40;98497.13;;;3.63;81.00
9525;BME280;15940;48.734;9.112;2023-02-12T04:42:10;98485.28;;;3.61;81.25
9525;BME280;15940;48.734;9.112;2023-02-12T04:44:40;98499.03;;;3.63;81.30
9525;BME280;15940;48.734;9.112;2023-02-12T04:47:17;98489.47;;;3.62;81.67
9525;BME280;15940;48.734;9.112;2023-02-12T04:49:44;98491.75;;;3.63;81.39
9525;BME280;15940;48.734;9.112;2023-02-12T04:52:15;98495.97;;;3.64;81.53
9525;BME280;15940;48.734;9.112;2023-02-12T04:54:56;98484.50;;;3.64;81.31
9525;BME280;15940;48.734;9.112;2023-02-12T04:57:23;98500.19;;;3.62;81.92
9525;BME280;15940;48.734;9.112;2023-02-12T04:59:50;98497.91;;;3.60;81.79
9525;BME280;15940;48.734;9.112;2023-02-12T05:02:18;98499.44;;;3.61;81.77
9525;BME280;15940;48.734;9.112;2023-02-12T05:04:45;98504.78;;;3.61;81.93
9525;BME280;15940;48.734;9.112;2023-02-12T05:07:12;98496.00;;;3.61;81.68
9525;BME280;15940;48.734;9.112;2023-02-12T05:09:42;98502.13;;;3.61;81.80
9525;BME280;15940;48.734;9.112;2023-02-12T05:12:09;98504.41;;;3.63;81.78
9525;BME280;15940;48.734;9.112;2023-02-12T05:14:39;98501.34;;;3.61;81.78
9525;BME280;15940;48.734;9.112;2023-02-12T05:17:06;98497.91;;;3.60;81.77
9525;BME280;15940;48.734;9.112;2023-02-12T05:19:34;98492.56;;;3.57;81.71
9525;BME280;15940;48.734;9.112;2023-02-12T05:22:01;98482.63;;;3.54;82.03
9525;BME280;15940;48.734;9.112;2023-02-12T05:24:28;98488.00;;;3.54;81.69
9525;BME280;15940;48.734;9.112;2023-02-12T05:26:55;98493.34;;;3.50;81.95
9525;BME280;15940;48.734;9.112;2023-02-12T05:29:22;98490.75;;;3.43;82.00
9525;BME280;15940;48.734;9.112;2023-02-12T05:31:49;98492.25;;;3.40;82.04
9525;BME280;15940;48.734;9.112;2023-02-12T05:34:16;98491.50;;;3.40;81.95
9525;BME280;15940;48.734;9.112;2023-02-12T05:36:44;98488.06;;;3.39;81.90
9525;BME280;15940;48.734;9.112;2023-02-12T05:39:11;98496.50;;;3.38;82.22
9525;BME280;15940;48.734;9.112;2023-02-12T05:41:38;98496.88;;;3.36;82.12
9525;BME280;15940;48.734;9.112;2023-02-12T05:44:06;98503.41;;;3.35;82.13
9525;BME280;15940;48.734;9.112;2023-02-12T05:46:34;98500.31;;;3.37;82.05
9525;BME280;15940;48.734;9.112;2023-02-12T05:49:01;98493.03;;;3.37;81.81
9525;BME280;15940;48.734;9.112;2023-02-12T05:51:29;98493.03;;;3.37;81.81
9525;BME280;15940;48.734;9.112;2023-02-12T05:54:03;98486.56;;;3.31;81.82
9525;BME280;15940;48.734;9.112;2023-02-12T05:56:32;98495.00;;;3.33;81.96
9525;BME280;15940;48.734;9.112;2023-02-12T05:59:04;98496.13;;;3.36;81.72
9525;BME280;15940;48.734;9.112;2023-02-12T06:01:34;98504.88;;;3.40;81.82
9525;BME280;15940;48.734;9.112;2023-02-12T06:04:05;98499.94;;;3.42;81.78
9525;BME280;15940;48.734;9.112;2023-02-12T06:06:35;98503.34;;;3.46;81.57
9525;BME280;15940;48.734;9.112;2023-02-12T06:09:05;98499.13;;;3.45;81.41
9525;BME280;15940;48.734;9.112;2023-02-12T06:11:32;98502.56;;;3.46;81.44
9525;BME280;15940;48.734;9.112;2023-02-12T06:14:01;98501.41;;;3.47;81.52
9525;BME280;15940;48.734;9.112;2023-02-12T06:16:30;98494.16;;;3.47;81.49
9525;BME280;15940;48.734;9.112;2023-02-12T06:18:59;98488.81;;;3.43;81.24
9525;BME280;15940;48.734;9.112;2023-02-12T06:21:28;98496.44;;;3.49;81.06
9525;BME280;15940;48.734;9.112;2023-02-12T06:23:56;98501.38;;;3.50;81.21
9525;BME280;15940;48.734;9.112;2023-02-12T06:26:25;98502.19;;;3.47;81.58
9525;BME280;15940;48.734;9.112;2023-02-12T06:28:54;98498.75;;;3.47;82.70
9525;BME280;15940;48.734;9.112;2023-02-12T06:31:24;98500.66;;;3.46;83.05
9525;BME280;15940;48.734;9.112;2023-02-12T06:34:00;98492.25;;;3.44;83.38
9525;BME280;15940;48.734;9.112;2023-02-12T06:36:27;98502.19;;;3.47;83.34
9525;BME280;15940;48.734;9.112;2023-02-12T06:38:56;98505.22;;;3.49;83.48
9525;BME280;15940;48.734;9.112;2023-02-12T06:41:24;98510.97;;;3.51;83.44
9525;BME280;15940;48.734;9.112;2023-02-12T06:43:53;98511.34;;;3.53;83.40
9525;BME280;15940;48.734;9.112;2023-02-12T06:46:20;98514.41;;;3.55;83.38
9525;BME280;15940;48.734;9.112;2023-02-12T06:48:52;98517.84;;;3.56;83.21
9525;BME280;15940;48.734;9.112;2023-02-12T06:51:20;98511.72;;;3.55;83.39
9525;BME280;15940;48.734;9.112;2023-02-12T06:53:48;98506.31;;;3.59;83.41
9525;BME280;15940;48.734;9.112;2023-02-12T06:56:17;98517.44;;;3.61;83.39
9525;BME280;15940;48.734;9.112;2023-02-12T06:58:53;98528.16;;;3.61;83.60
9525;BME280;15940;48.734;9.112;2023-02-12T07:01:24;98521.25;;;3.63;83.43
9525;BME280;15940;48.734;9.112;2023-02-12T07:03:55;98526.94;;;3.69;83.37
9525;BME280;15940;48.734;9.112;2023-02-12T07:06:23;98526.56;;;3.70;83.61
9525;BME280;15940;48.734;9.112;2023-02-12T07:08:50;98540.69;;;3.75;83.52
9525;BME280;15940;48.734;9.112;2023-02-12T07:11:17;98528.06;;;3.75;83.38
9525;BME280;15940;48.734;9.112;2023-02-12T07:13:47;98527.66;;;3.77;83.19
9525;BME280;15940;48.734;9.112;2023-02-12T07:16:16;98530.34;;;3.80;83.14
9525;BME280;15940;48.734;9.112;2023-02-12T07:18:44;98529.50;;;3.87;82.85
9525;BME280;15940;48.734;9.112;2023-02-12T07:21:13;98533.34;;;3.86;82.42
9525;BME280;15940;48.734;9.112;2023-02-12T07:23:46;98538.31;;;3.87;82.63
9525;BME280;15940;48.734;9.112;2023-02-12T07:26:14;98529.91;;;3.85;82.32
9525;BME280;15940;48.734;9.112;2023-02-12T07:28:43;98535.31;;;3.78;81.86
9525;BME280;15940;48.734;9.112;2023-02-12T07:31:13;98525.72;;;3.84;82.09
9525;BME280;15940;48.734;9.112;2023-02-12T07:33:41;98529.16;;;3.85;81.91
9525;BME280;15940;48.734;9.112;2023-02-12T07:36:11;98534.13;;;3.86;81.87
9525;BME280;15940;48.734;9.112;2023-02-12T07:38:42;98533.72;;;3.88;81.75
9525;BME280;15940;48.734;9.112;2023-02-12T07:41:12;98531.75;;;3.95;81.69
9525;BME280;15940;48.734;9.112;2023-02-12T07:43:43;98537.47;;;3.97;81.10
9525;BME280;15940;48.734;9.112;2023-02-12T07:46:14;98537.81;;;4.07;80.96
9525;BME280;15940;48.734;9.112;2023-02-12T07:48:44;98538.19;;;4.09;80.55
9525;BME280;15940;48.734;9.112;2023-02-12T07:51:15;98541.19;;;4.14;80.53
9525;BME280;15940;48.734;9.112;2023-02-12T07:53:51;98538.91;;;4.13;80.27
9525;BME280;15940;48.734;9.112;2023-02-12T07:56:22;98545.75;;;4.21;80.38
9525;BME280;15940;48.734;9.112;2023-02-12T07:58:51;98529.63;;;4.24;80.01
9525;BME280;15940;48.734;9.112;2023-02-12T08:01:23;98540.28;;;4.35;79.96
9525;BME280;15940;48.734;9.112;2023-02-12T08:03:57;98525.41;;;4.27;79.43
9525;BME280;15940;48.734;9.112;2023-02-12T08:06:29;98534.91;;;4.35;79.37
9525;BME280;15940;48.734;9.112;2023-02-12T08:09:07;98538.38;;;4.32;79.15
9525;BME280;15940;48.734;9.112;2023-02-12T08:11:38;98535.72;;;4.32;78.62
9525;BME280;15940;48.734;9.112;2023-02-12T08:14:05;98546.00;;;4.41;78.55
9525;BME280;15940;48.734;9.112;2023-02-12T08:16:43;98530.59;;;4.48;78.55
9525;BME280;15940;48.734;9.112;2023-02-12T08:19:14;98528.31;;;4.43;78.74
9525;BME280;15940;48.734;9.112;2023-02-12T08:21:41;98536.31;;;4.50;78.11
9525;BME280;15940;48.734;9.112;2023-02-12T08:24:09;98537.84;;;4.51;77.97
9525;BME280;15940;48.734;9.112;2023-02-12T08:26:38;98535.91;;;4.52;77.71
9525;BME280;15940;48.734;9.112;2023-02-12T08:29:09;98530.53;;;4.55;77.93
9525;BME280;15940;48.734;9.112;2023-02-12T08:31:44;98525.47;;;4.65;77.53
9525;BME280;15940;48.734;9.112;2023-02-12T08:34:17;98521.47;;;4.80;76.91
9525;BME280;15940;48.734;9.112;2023-02-12T08:36:46;98530.28;;;4.80;76.84
9525;BME280;15940;48.734;9.112;2023-02-12T08:39:14;98527.53;;;4.87;76.79
9525;BME280;15940;48.734;9.112;2023-02-12T08:41:48;98539.69;;;4.99;76.25
9525;BME280;15940;48.734;9.112;2023-02-12T08:44:17;98530.03;;;5.05;75.88
9525;BME280;15940;48.734;9.112;2023-02-12T08:46:50;98521.22;;;5.05;75.47
9525;BME280;15940;48.734;9.112;2023-02-12T08:49:21;98531.88;;;5.12;75.08
9525;BME280;15940;48.734;9.112;2023-02-12T08:51:54;98537.22;;;5.15;75.31
9525;BME280;15940;48.734;9.112;2023-02-12T08:54:24;98532.66;;;5.09;74.87
9525;BME280;15940;48.734;9.112;2023-02-12T08:56:54;98540.31;;;5.14;75.47
9525;BME280;15940;48.734;9.112;2023-02-12T08:59:22;98537.63;;;5.14;75.28
9525;BME280;15940;48.734;9.112;2023-02-12T09:01:52;98532.41;;;5.30;75.34
9525;BME280;15940;48.734;9.112;2023-02-12T09:04:26;98538.75;;;5.47;75.01
9525;BME280;15940;48.734;9.112;2023-02-12T09:06:54;98542.31;;;5.37;74.87
9525;BME280;15940;48.734;9.112;2023-02-12T09:09:23;98534.59;;;5.42;75.13
9525;BME280;15940;48.734;9.112;2023-02-12T09:11:50;98541.44;;;5.47;75.17
9525;BME280;15940;48.734;9.112;2023-02-12T09:14:18;98535.88;;;5.61;74.84
9525;BME280;15940;48.734;9.112;2023-02-12T09:16:50;98538.84;;;5.70;74.90
9525;BME280;15940;48.734;9.112;2023-02-12T09:19:19;98540.56;;;5.84;74.49
9525;BME280;15940;48.734;9.112;2023-02-12T09:21:50;98539.38;;;5.85;74.50
9525;BME280;15940;48.734;9.112;2023-02-12T09:24:18;98533.94;;;5.92;74.65
9525;BME280;15940;48.734;9.112;2023-02-12T09:26:45;98542.72;;;5.96;74.60
9525;BME280;15940;48.734;9.112;2023-02-12T09:29:12;98535.81;;;5.95;74.63
9525;BME280;15940;48.734;9.112;2023-02-12T09:31:39;98545.50;;;5.89;75.02
9525;BME280;15940;48.734;9.112;2023-02-12T09:34:07;98556.22;;;5.93;75.32
9525;BME280;15940;48.734;9.112;2023-02-12T09:36:34;98545.72;;;6.02;75.68
9525;BME280;15940;48.734;9.112;2023-02-12T09:39:03;98549.47;;;6.08;75.38
9525;BME280;15940;48.734;9.112;2023-02-12T09:45:06;98549.41;;;6.12;75.46
9525;BME280;15940;48.734;9.112;2023-02-12T09:47:44;98549.16;;;6.03;75.93
9525;BME280;15940;48.734;9.112;2023-02-12T09:50:44;98542.34;;;6.21;75.83
9525;BME280;15940;48.734;9.112;2023-02-12T09:53:21;98542.34;;;6.21;75.89
9525;BME280;15940;48.734;9.112;2023-02-12T09:55:49;98539.59;;;6.25;75.95
9525;BME280;15940;48.734;9.112;2023-02-12T09:58:27;98550.34;;;6.25;75.80
9525;BME280;15940;48.734;9.112;2023-02-12T10:00:57;98548.97;;;6.17;75.16
9525;BME280;15940;48.734;9.112;2023-02-12T10:03:33;98543.94;;;6.19;75.72
9525;BME280;15940;48.734;9.112;2023-02-12T10:06:10;98546.56;;;6.22;75.55
9525;BME280;15940;48.734;9.112;2023-02-12T10:11:50;98541.97;;;6.46;75.91
9525;BME280;15940;48.734;9.112;2023-02-12T10:14:42;98544.88;;;6.55;74.99
9525;BME280;15940;48.734;9.112;2023-02-12T10:17:22;98545.75;;;6.49;75.33
9525;BME280;15940;48.734;9.112;2023-02-12T10:20:39;98545.16;;;6.61;74.49
9525;BME280;15940;48.734;9.112;2023-02-12T10:23:36;98544.75;;;6.63;73.88
9525;BME280;15940;48.734;9.112;2023-02-12T10:26:18;98544.06;;;6.58;74.62
9525;BME280;15940;48.734;9.112;2023-02-12T10:28:49;98543.59;;;6.64;74.68
9525;BME280;15940;48.734;9.112;2023-02-12T10:31:25;98542.75;;;6.67;74.13
9525;BME280;15940;48.734;9.112;2023-02-12T10:33:55;98541.38;;;6.58;73.99
9525;BME280;15940;48.734;9.112;2023-02-12T10:36:37;98549.25;;;6.69;73.63
9525;BME280;15940;48.734;9.112;2023-02-12T10:39:17;98544.16;;;6.75;73.92
9525;BME280;15940;48.734;9.112;2023-02-12T10:41:54;98532.00;;;6.67;73.83
9525;BME280;15940;48.734;9.112;2023-02-12T10:44:22;98534.56;;;6.74;74.08
9525;BME280;15940;48.734;9.112;2023-02-12T10:46:49;98535.69;;;6.76;74.40
9525;BME280;15940;48.734;9.112;2023-02-12T10:49:19;98529.88;;;6.78;74.09
9525;BME280;15940;48.734;9.112;2023-02-12T10:52:07;98532.16;;;6.99;73.24
9525;BME280;15940;48.734;9.112;2023-02-12T10:54:43;98524.03;;;6.83;73.97
9525;BME280;15940;48.734;9.112;2023-02-12T10:57:18;98517.31;;;6.91;74.19
9525;BME280;15940;48.734;9.112;2023-02-12T10:59:51;98524.25;;;6.92;73.24
9525;BME280;15940;48.734;9.112;2023-02-12T11:02:30;98514.97;;;6.93;73.85
9525;BME280;15940;48.734;9.112;2023-02-12T11:05:19;98520.97;;;7.01;73.28
9525;BME280;15940;48.734;9.112;2023-02-12T11:07:49;98513.72;;;6.98;73.49
9525;BME280;15940;48.734;9.112;2023-02-12T11:10:27;98515.59;;;7.01;73.74
9525;BME280;15940;48.734;9.112;2023-02-12T11:12:54;98521.59;;;7.08;73.82
9525;BME280;15940;48.734;9.112;2023-02-12T11:15:25;98513.59;;;7.05;73.38
9525;BME280;15940;48.734;9.112;2023-02-12T11:17:59;98519.41;;;7.03;73.78
9525;BME280;15940;48.734;9.112;2023-02-12T11:20:38;98519.41;;;7.03;73.23
9525;BME280;15940;48.734;9.112;2023-02-12T11:23:27;98518.16;;;7.08;73.54
9525;BME280;15940;48.734;9.112;2023-02-12T11:25:59;98510.06;;;7.08;73.26
9525;BME280;15940;48.734;9.112;2023-02-12T11:28:35;98506.59;;;7.07;74.10
9525;BME280;15940;48.734;9.112;2023-02-12T11:31:19;98505.84;;;7.27;73.30
9525;BME280;15940;48.734;9.112;2023-02-12T11:34:12;98497.75;;;7.27;73.64
9525;BME280;15940;48.734;9.112;2023-02-12T11:36:45;98507.09;;;7.42;73.20
9525;BME280;15940;48.734;9.112;2023-02-12T11:39:19;98505.06;;;7.46;72.84
9525;BME280;15940;48.734;9.112;2023-02-12T11:41:58;98502.31;;;7.50;72.53
9525;BME280;15940;48.734;9.112;2023-02-12T11:44:35;98500.94;;;7.58;72.42
9525;BME280;15940;48.734;9.112;2023-02-12T11:47:06;98496.88;;;7.69;71.85
9525;BME280;15940;48.734;9.112;2023-02-12T11:50:01;98504.28;;;7.82;71.83
9525;BME280;15940;48.734;9.112;2023-02-12T11:52:34;98494.69;;;7.81;71.84
9525;BME280;15940;48.734;9.112;2023-02-12T11:55:22;98489.19;;;7.84;72.03
9525;BME280;15940;48.734;9.112;2023-02-12T11:58:02;98487.44;;;7.94;71.12
9525;BME280;15940;48.734;9.112;2023-02-12T12:00:36;98489.38;;;8.10;70.97
9525;BME280;15940;48.734;9.112;2023-02-12T12:03:17;98496.88;;;8.02;71.87
9525;BME280;15940;48.734;9.112;2023-02-12T12:05:50;98502.09;;;7.93;71.18
9525;BME280;15940;48.734;9.112;2023-02-12T12:08:26;98487.34;;;8.14;71.45
9525;BME280;15940;48.734;9.112;2023-02-12T12:11:03;98479.59;;;8.16;70.82
9525;BME280;15940;48.734;9.112;2023-02-12T12:13:46;98483.72;;;8.20;71.38
9525;BME280;15940;48.734;9.112;2023-02-12T12:16:20;98489.97;;;8.17;70.62
9525;BME280;15940;48.734;9.112;2023-02-12T12:19:11;98490.91;;;8.11;70.73
9525;BME280;15940;48.734;9.112;2023-02-12T12:22:04;98490.56;;;8.09;70.96
9525;BME280;15940;48.734;9.112;2023-02-12T12:24:42;98479.84;;;8.05;71.20
9525;BME280;15940;48.734;9.112;2023-02-12T12:27:20;98481.72;;;8.08;71.31
9525;BME280;15940;48.734;9.112;2023-02-12T12:30:23;98475.22;;;8.06;70.43
9525;BME280;15940;48.734;9.112;2023-02-12T12:32:53;98472.66;;;8.15;71.57
9525;BME280;15940;48.734;9.112;2023-02-12T12:35:31;98480.69;;;8.18;70.55
9525;BME280;15940;48.734;9.112;2023-02-12T12:38:08;98481.34;;;8.22;71.10
9525;BME280;15940;48.734;9.112;2023-02-12T12:40:59;98472.66;;;8.31;70.83
9525;BME280;15940;48.734;9.112;2023-02-12T12:43:44;98473.09;;;8.29;71.09
9525;BME280;15940;48.734;9.112;2023-02-12T12:46:42;98481.03;;;8.37;70.79
9525;BME280;15940;48.734;9.112;2023-02-12T12:53:00;98463.38;;;8.32;71.00
9525;BME280;15940;48.734;9.112;2023-02-12T12:58:44;98464.22;;;8.29;71.64
9525;BME280;15940;48.734;9.112;2023-02-12T13:01:49;98451.22;;;8.24;70.73
9525;BME280;15940;48.734;9.112;2023-02-12T13:04:54;98449.88;;;8.32;70.85
9525;BME280;15940;48.734;9.112;2023-02-12T13:07:52;98449.81;;;8.36;71.12
9525;BME280;15940;48.734;9.112;2023-02-12T13:10:33;98450.53;;;8.52;70.88
9525;BME280;15940;48.734;9.112;2023-02-12T13:13:17;98448.66;;;8.66;69.22
9525;BME280;15940;48.734;9.112;2023-02-12T13:15:55;98442.72;;;8.42;69.92
9525;BME280;15940;48.734;9.112;2023-02-12T13:18:49;98449.72;;;8.39;70.23
9525;BME280;15940;48.734;9.112;2023-02-12T13:21:38;98437.09;;;8.36;70.19
9525;BME280;15940;48.734;9.112;2023-02-12T13:24:33;98450.50;;;8.69;70.11
9525;BME280;15940;48.734;9.112;2023-02-12T13:27:15;98442.50;;;8.65;68.64
9525;BME280;15940;48.734;9.112;2023-02-12T13:29:51;98452.72;;;8.57;69.71
9525;BME280;15940;48.734;9.112;2023-02-12T13:32:26;98436.97;;;8.69;69.19
9525;BME280;15940;48.734;9.112;2023-02-12T13:35:16;98444.56;;;8.28;70.12
9525;BME280;15940;48.734;9.112;2023-02-12T13:37:48;98435.56;;;8.02;71.23
9525;BME280;15940;48.734;9.112;2023-02-12T13:40:19;98430.28;;;7.99;71.76
9525;BME280;15940;48.734;9.112;2023-02-12T13:42:55;98433.34;;;8.30;71.46
9525;BME280;15940;48.734;9.112;2023-02-12T13:45:35;98433.06;;;8.57;69.94
9525;BME280;15940;48.734;9.112;2023-02-12T13:48:34;98428.59;;;8.50;69.31
9525;BME280;15940;48.734;9.112;2023-02-12T13:51:20;98430.50;;;8.37;70.20
9525;BME280;15940;48.734;9.112;2023-02-12T13:54:04;98421.53;;;8.40;70.34
9525;BME280;15940;48.734;9.112;2023-02-12T13:56:40;98422.13;;;8.48;70.00
9525;BME280;15940;48.734;9.112;2023-02-12T13:59:42;98432.16;;;8.31;70.55
9525;BME280;15940;48.734;9.112;2023-02-12T14:02:48;98420.94;;;8.49;70.54
9525;BME280;15940;48.734;9.112;2023-02-12T14:05:26;98422.97;;;8.74;69.49
9525;BME280;15940;48.734;9.112;2023-02-12T14:08:00;98423.47;;;8.69;68.97
9525;BME280;15940;48.734;9.112;2023-02-12T14:10:35;98419.28;;;8.80;68.98
9525;BME280;15940;48.734;9.112;2023-02-12T14:13:20;98416.09;;;8.98;69.02
9525;BME280;15940;48.734;9.112;2023-02-12T14:15:56;98414.06;;;9.02;67.96
9525;BME280;15940;48.734;9.112;2023-02-12T14:18:31;98415.03;;;9.08;69.01
9525;BME280;15940;48.734;9.112;2023-02-12T14:21:38;98411.91;;;9.23;67.98
9525;BME280;15940;48.734;9.112;2023-02-12T14:24:49;98404.13;;;9.37;68.23
9525;BME280;15940;48.734;9.112;2023-02-12T14:27:43;98407.50;;;9.41;67.85
9525;BME280;15940;48.734;9.112;2023-02-12T14:30:32;98397.00;;;9.43;67.35
9525;BME280;15940;48.734;9.112;2023-02-12T14:33:25;98394.94;;;9.35;67.20
9525;BME280;15940;48.734;9.112;2023-02-12T14:36:18;98390.84;;;9.30;67.98